sensor_id;sensor_type;location;lat;lon;timestamp;P1;durP1;ratioP1;P2;durP2;ratioP2
31730;SDS011;18310;55.586;12.286;2024-01-25T00:00:20;22.33;;;3.20;;
31730;SDS011;18310;55.586;12.286;2024-01-25T00:03:24;15.25;;;3.05;;
31730;SDS011;18310;55.586;12.286;2024-01-25T00:06:27;11.25;;;2.00;;
31730;SDS011;18310;55.586;12.286;2024-01-25T00:09:30;13.55;;;2.40;;
31730;SDS011;18310;55.586;12.286;2024-01-25T00:12:33;9.65;;;2.28;;
31730;SDS011;18310;55.586;12.286;2024-01-25T00:15:37;10.93;;;2.13;;
31730;SDS011;18310;55.586;12.286;2024-01-25T00:19:06;15.52;;;2.63;;
31730;SDS011;18310;55.586;12.286;2024-01-25T00:22:10;21.67;;;3.75;;
31730;SDS011;18310;55.586;12.286;2024-01-25T00:25:13;21.73;;;3.47;;
31730;SDS011;18310;55.586;12.286;2024-01-25T00:28:17;13.35;;;2.45;;
31730;SDS011;18310;55.586;12.286;2024-01-25T00:31:21;13.15;;;2.72;;
31730;SDS011;18310;55.586;12.286;2024-01-25T00:34:26;14.63;;;3.03;;
31730;SDS011;18310;55.586;12.286;2024-01-25T00:37:30;15.93;;;3.30;;
31730;SDS011;18310;55.586;12.286;2024-01-25T00:40:33;17.25;;;3.58;;
31730;SDS011;18310;55.586;12.286;2024-01-25T00:43:37;15.80;;;3.47;;
31730;SDS011;18310;55.586;12.286;2024-01-25T00:46:40;16.75;;;3.53;;
31730;SDS011;18310;55.586;12.286;2024-01-25T00:49:46;21.98;;;3.33;;
31730;SDS011;18310;55.586;12.286;2024-01-25T00:52:50;17.60;;;3.63;;
31730;SDS011;18310;55.586;12.286;2024-01-25T00:55:54;13.68;;;3.13;;
31730;SDS011;18310;55.586;12.286;2024-01-25T00:58:58;18.02;;;4.20;;
31730;SDS011;18310;55.586;12.286;2024-01-25T01:02:01;28.33;;;4.70;;
31730;SDS011;18310;55.586;12.286;2024-01-25T01:05:16;22.42;;;3.42;;
31730;SDS011;18310;55.586;12.286;2024-01-25T01:08:20;23.65;;;3.60;;
31730;SDS011;18310;55.586;12.286;2024-01-25T01:11:24;23.98;;;4.10;;
31730;SDS011;18310;55.586;12.286;2024-01-25T01:14:27;26.30;;;4.55;;
31730;SDS011;18310;55.586;12.286;2024-01-25T01:17:30;16.33;;;3.70;;
31730;SDS011;18310;55.586;12.286;2024-01-25T01:20:35;24.45;;;4.55;;
31730;SDS011;18310;55.586;12.286;2024-01-25T01:23:38;19.08;;;3.33;;
31730;SDS011;18310;55.586;12.286;2024-01-25T01:26:41;30.75;;;3.63;;
31730;SDS011;18310;55.586;12.286;2024-01-25T01:29:44;19.55;;;3.63;;
31730;SDS011;18310;55.586;12.286;2024-01-25T01:32:47;35.83;;;5.20;;
31730;SDS011;18310;55.586;12.286;2024-01-25T01:35:53;12.23;;;3.53;;
31730;SDS011;18310;55.586;12.286;2024-01-25T01:38:56;18.42;;;3.80;;
31730;SDS011;18310;55.586;12.286;2024-01-25T01:42:00;22.73;;;3.87;;
31730;SDS011;18310;55.586;12.286;2024-01-25T01:45:03;26.88;;;4.20;;
31730;SDS011;18310;55.586;12.286;2024-01-25T01:48:07;24.60;;;4.43;;
31730;SDS011;18310;55.586;12.286;2024-01-25T01:51:12;25.45;;;4.43;;
31730;SDS011;18310;55.586;12.286;2024-01-25T01:54:15;19.42;;;3.63;;
31730;SDS011;18310;55.586;12.286;2024-01-25T01:57:19;17.90;;;3.65;;
31730;SDS011;18310;55.586;12.286;2024-01-25T02:00:23;27.63;;;4.80;;
31730;SDS011;18310;55.586;12.286;2024-01-25T02:03:28;34.13;;;5.22;;
31730;SDS011;18310;55.586;12.286;2024-01-25T02:06:33;32.97;;;4.40;;
31730;SDS011;18310;55.586;12.286;2024-01-25T02:09:36;20.10;;;4.55;;
31730;SDS011;18310;55.586;12.286;2024-01-25T02:12:40;24.00;;;4.43;;
31730;SDS011;18310;55.586;12.286;2024-01-25T02:15:43;25.58;;;4.18;;
31730;SDS011;18310;55.586;12.286;2024-01-25T02:18:46;21.45;;;4.20;;
31730;SDS011;18310;55.586;12.286;2024-01-25T02:21:52;27.55;;;4.63;;
31730;SDS011;18310;55.586;12.286;2024-01-25T02:24:58;18.15;;;4.38;;
31730;SDS011;18310;55.586;12.286;2024-01-25T02:28:02;23.00;;;3.53;;
31730;SDS011;18310;55.586;12.286;2024-01-25T02:31:05;30.25;;;4.80;;
31730;SDS011;18310;55.586;12.286;2024-01-25T02:34:09;18.15;;;3.90;;
31730;SDS011;18310;55.586;12.286;2024-01-25T02:37:12;15.93;;;3.67;;
31730;SDS011;18310;55.586;12.286;2024-01-25T02:40:18;20.60;;;4.82;;
31730;SDS011;18310;55.586;12.286;2024-01-25T02:43:21;16.58;;;3.35;;
31730;SDS011;18310;55.586;12.286;2024-01-25T02:46:25;25.52;;;4.07;;
31730;SDS011;18310;55.586;12.286;2024-01-25T02:49:29;23.60;;;4.20;;
31730;SDS011;18310;55.586;12.286;2024-01-25T02:52:33;17.42;;;3.63;;
31730;SDS011;18310;55.586;12.286;2024-01-25T02:55:37;19.07;;;4.30;;
31730;SDS011;18310;55.586;12.286;2024-01-25T02:58:41;24.05;;;3.80;;
31730;SDS011;18310;55.586;12.286;2024-01-25T03:01:44;19.60;;;3.90;;
31730;SDS011;18310;55.586;12.286;2024-01-25T03:04:48;25.30;;;4.43;;
31730;SDS011;18310;55.586;12.286;2024-01-25T03:07:52;20.15;;;3.33;;
31730;SDS011;18310;55.586;12.286;2024-01-25T03:10:56;25.33;;;4.45;;
31730;SDS011;18310;55.586;12.286;2024-01-25T03:14:00;22.17;;;4.75;;
31730;SDS011;18310;55.586;12.286;2024-01-25T03:17:03;28.37;;;4.70;;
31730;SDS011;18310;55.586;12.286;2024-01-25T03:20:14;21.13;;;3.40;;
31730;SDS011;18310;55.586;12.286;2024-01-25T03:23:18;26.88;;;3.88;;
31730;SDS011;18310;55.586;12.286;2024-01-25T03:26:23;21.87;;;4.87;;
31730;SDS011;18310;55.586;12.286;2024-01-25T03:29:26;21.48;;;3.95;;
31730;SDS011;18310;55.586;12.286;2024-01-25T03:32:32;19.73;;;4.57;;
31730;SDS011;18310;55.586;12.286;2024-01-25T03:35:36;35.03;;;5.28;;
31730;SDS011;18310;55.586;12.286;2024-01-25T03:38:40;20.92;;;4.38;;
31730;SDS011;18310;55.586;12.286;2024-01-25T03:41:44;24.70;;;3.93;;
31730;SDS011;18310;55.586;12.286;2024-01-25T03:44:48;38.17;;;5.90;;
31730;SDS011;18310;55.586;12.286;2024-01-25T03:47:51;32.83;;;4.93;;
31730;SDS011;18310;55.586;12.286;2024-01-25T03:50:55;15.30;;;2.90;;
31730;SDS011;18310;55.586;12.286;2024-01-25T03:53:58;32.70;;;4.10;;
31730;SDS011;18310;55.586;12.286;2024-01-25T03:57:03;26.08;;;3.55;;
31730;SDS011;18310;55.586;12.286;2024-01-25T04:00:13;24.30;;;5.60;;
31730;SDS011;18310;55.586;12.286;2024-01-25T04:03:17;23.40;;;3.92;;
31730;SDS011;18310;55.586;12.286;2024-01-25T04:06:21;16.85;;;3.80;;
31730;SDS011;18310;55.586;12.286;2024-01-25T04:09:25;19.73;;;3.67;;
31730;SDS011;18310;55.586;12.286;2024-01-25T04:12:29;23.87;;;4.00;;
31730;SDS011;18310;55.586;12.286;2024-01-25T04:15:35;30.38;;;4.88;;
31730;SDS011;18310;55.586;12.286;2024-01-25T04:18:38;25.60;;;3.57;;
31730;SDS011;18310;55.586;12.286;2024-01-25T04:21:42;22.58;;;4.03;;
31730;SDS011;18310;55.586;12.286;2024-01-25T04:24:46;22.08;;;4.55;;
31730;SDS011;18310;55.586;12.286;2024-01-25T04:27:53;20.75;;;4.10;;
31730;SDS011;18310;55.586;12.286;2024-01-25T04:30:56;24.52;;;4.20;;
31730;SDS011;18310;55.586;12.286;2024-01-25T04:34:00;29.45;;;4.03;;
31730;SDS011;18310;55.586;12.286;2024-01-25T04:37:03;17.90;;;4.38;;
31730;SDS011;18310;55.586;12.286;2024-01-25T04:40:14;21.77;;;4.57;;
31730;SDS011;18310;55.586;12.286;2024-01-25T04:43:20;26.73;;;4.55;;
31730;SDS011;18310;55.586;12.286;2024-01-25T04:46:40;28.00;;;4.75;;
31730;SDS011;18310;55.586;12.286;2024-01-25T04:49:45;28.27;;;3.80;;
31730;SDS011;18310;55.586;12.286;2024-01-25T04:52:48;25.48;;;4.90;;
31730;SDS011;18310;55.586;12.286;2024-01-25T04:55:53;21.67;;;3.57;;
31730;SDS011;18310;55.586;12.286;2024-01-25T04:58:57;27.88;;;5.32;;
31730;SDS011;18310;55.586;12.286;2024-01-25T05:02:02;25.60;;;4.88;;
31730;SDS011;18310;55.586;12.286;2024-01-25T05:05:06;25.63;;;4.88;;
31730;SDS011;18310;55.586;12.286;2024-01-25T05:08:10;21.70;;;3.70;;
31730;SDS011;18310;55.586;12.286;2024-01-25T05:11:14;30.48;;;4.82;;
31730;SDS011;18310;55.586;12.286;2024-01-25T05:14:17;23.60;;;3.73;;
31730;SDS011;18310;55.586;12.286;2024-01-25T05:17:22;22.77;;;3.92;;
31730;SDS011;18310;55.586;12.286;2024-01-25T05:20:26;23.35;;;4.85;;
31730;SDS011;18310;55.586;12.286;2024-01-25T05:23:34;30.92;;;4.57;;
31730;SDS011;18310;55.586;12.286;2024-01-25T05:26:37;27.07;;;5.53;;
31730;SDS011;18310;55.586;12.286;2024-01-25T05:29:41;25.85;;;4.72;;
31730;SDS011;18310;55.586;12.286;2024-01-25T05:32:49;20.73;;;4.55;;
31730;SDS011;18310;55.586;12.286;2024-01-25T05:35:55;32.25;;;4.68;;
31730;SDS011;18310;55.586;12.286;2024-01-25T05:38:59;22.23;;;4.30;;
31730;SDS011;18310;55.586;12.286;2024-01-25T05:42:02;19.63;;;3.63;;
31730;SDS011;18310;55.586;12.286;2024-01-25T05:45:12;26.60;;;4.70;;
31730;SDS011;18310;55.586;12.286;2024-01-25T05:48:18;20.98;;;4.22;;
31730;SDS011;18310;55.586;12.286;2024-01-25T05:51:22;19.33;;;3.97;;
31730;SDS011;18310;55.586;12.286;2024-01-25T05:54:25;18.48;;;4.15;;
31730;SDS011;18310;55.586;12.286;2024-01-25T05:57:29;31.92;;;4.35;;
31730;SDS011;18310;55.586;12.286;2024-01-25T06:00:33;14.88;;;3.60;;
31730;SDS011;18310;55.586;12.286;2024-01-25T06:03:38;31.15;;;4.82;;
31730;SDS011;18310;55.586;12.286;2024-01-25T06:06:41;29.98;;;3.97;;
31730;SDS011;18310;55.586;12.286;2024-01-25T06:09:45;18.48;;;3.53;;
31730;SDS011;18310;55.586;12.286;2024-01-25T06:12:48;15.45;;;3.25;;
31730;SDS011;18310;55.586;12.286;2024-01-25T06:15:52;27.60;;;4.22;;
31730;SDS011;18310;55.586;12.286;2024-01-25T06:22:02;23.40;;;4.72;;
31730;SDS011;18310;55.586;12.286;2024-01-25T06:25:05;25.48;;;4.30;;
31730;SDS011;18310;55.586;12.286;2024-01-25T06:28:10;18.30;;;3.63;;
31730;SDS011;18310;55.586;12.286;2024-01-25T06:31:14;17.77;;;3.25;;
31730;SDS011;18310;55.586;12.286;2024-01-25T06:34:19;26.07;;;3.90;;
31730;SDS011;18310;55.586;12.286;2024-01-25T06:37:22;21.38;;;4.85;;
31730;SDS011;18310;55.586;12.286;2024-01-25T06:40:26;23.30;;;4.77;;
31730;SDS011;18310;55.586;12.286;2024-01-25T06:43:29;15.17;;;3.37;;
31730;SDS011;18310;55.586;12.286;2024-01-25T06:46:33;22.42;;;4.18;;
31730;SDS011;18310;55.586;12.286;2024-01-25T06:49:37;21.47;;;4.53;;
31730;SDS011;18310;55.586;12.286;2024-01-25T06:52:41;26.20;;;4.43;;
31730;SDS011;18310;55.586;12.286;2024-01-25T06:55:45;19.45;;;3.88;;
31730;SDS011;18310;55.586;12.286;2024-01-25T06:58:49;22.90;;;3.85;;
31730;SDS011;18310;55.586;12.286;2024-01-25T07:01:53;28.42;;;5.55;;
31730;SDS011;18310;55.586;12.286;2024-01-25T07:05:21;18.77;;;4.70;;
31730;SDS011;18310;55.586;12.286;2024-01-25T07:08:24;17.27;;;3.50;;
31730;SDS011;18310;55.586;12.286;2024-01-25T07:11:27;16.45;;;3.75;;
31730;SDS011;18310;55.586;12.286;2024-01-25T07:15:26;17.30;;;3.28;;
31730;SDS011;18310;55.586;12.286;2024-01-25T07:18:30;19.77;;;4.28;;
31730;SDS011;18310;55.586;12.286;2024-01-25T07:21:33;21.95;;;5.03;;
31730;SDS011;18310;55.586;12.286;2024-01-25T07:24:37;24.67;;;4.30;;
31730;SDS011;18310;55.586;12.286;2024-01-25T07:27:43;14.85;;;3.72;;
31730;SDS011;18310;55.586;12.286;2024-01-25T07:30:48;26.48;;;3.83;;
31730;SDS011;18310;55.586;12.286;2024-01-25T07:33:52;29.58;;;4.63;;
31730;SDS011;18310;55.586;12.286;2024-01-25T07:36:57;18.90;;;3.13;;
31730;SDS011;18310;55.586;12.286;2024-01-25T07:40:00;15.73;;;3.05;;
31730;SDS011;18310;55.586;12.286;2024-01-25T07:43:05;24.45;;;4.30;;
31730;SDS011;18310;55.586;12.286;2024-01-25T07:46:31;17.33;;;3.72;;
31730;SDS011;18310;55.586;12.286;2024-01-25T07:49:34;17.45;;;3.47;;
31730;SDS011;18310;55.586;12.286;2024-01-25T07:52:38;18.10;;;3.35;;
31730;SDS011;18310;55.586;12.286;2024-01-25T07:55:41;19.80;;;3.90;;
31730;SDS011;18310;55.586;12.286;2024-01-25T07:58:45;27.37;;;3.83;;
31730;SDS011;18310;55.586;12.286;2024-01-25T08:01:51;31.73;;;4.25;;
31730;SDS011;18310;55.586;12.286;2024-01-25T08:04:55;24.88;;;3.78;;
31730;SDS011;18310;55.586;12.286;2024-01-25T08:08:00;24.42;;;4.57;;
31730;SDS011;18310;55.586;12.286;2024-01-25T08:11:03;18.33;;;2.90;;
31730;SDS011;18310;55.586;12.286;2024-01-25T08:14:07;18.15;;;3.25;;
31730;SDS011;18310;55.586;12.286;2024-01-25T08:17:12;24.27;;;4.00;;
31730;SDS011;18310;55.586;12.286;2024-01-25T08:20:16;30.23;;;4.00;;
31730;SDS011;18310;55.586;12.286;2024-01-25T08:23:20;22.60;;;3.05;;
31730;SDS011;18310;55.586;12.286;2024-01-25T08:26:24;19.40;;;4.15;;
31730;SDS011;18310;55.586;12.286;2024-01-25T08:29:27;23.25;;;3.70;;
31730;SDS011;18310;55.586;12.286;2024-01-25T08:32:32;15.60;;;2.63;;
31730;SDS011;18310;55.586;12.286;2024-01-25T08:35:35;21.90;;;3.95;;
31730;SDS011;18310;55.586;12.286;2024-01-25T08:38:39;20.63;;;3.33;;
31730;SDS011;18310;55.586;12.286;2024-01-25T08:41:43;16.70;;;3.65;;
31730;SDS011;18310;55.586;12.286;2024-01-25T08:47:53;19.45;;;3.17;;
31730;SDS011;18310;55.586;12.286;2024-01-25T08:50:58;22.58;;;3.28;;
31730;SDS011;18310;55.586;12.286;2024-01-25T08:54:01;15.07;;;3.33;;
31730;SDS011;18310;55.586;12.286;2024-01-25T08:57:06;15.55;;;3.10;;
31730;SDS011;18310;55.586;12.286;2024-01-25T09:00:10;23.98;;;3.47;;
31730;SDS011;18310;55.586;12.286;2024-01-25T09:03:15;17.30;;;3.88;;
31730;SDS011;18310;55.586;12.286;2024-01-25T09:06:19;14.32;;;3.05;;
31730;SDS011;18310;55.586;12.286;2024-01-25T09:09:24;16.42;;;3.10;;
31730;SDS011;18310;55.586;12.286;2024-01-25T09:12:27;16.63;;;3.03;;
31730;SDS011;18310;55.586;12.286;2024-01-25T09:15:31;15.68;;;3.65;;
31730;SDS011;18310;55.586;12.286;2024-01-25T09:18:36;18.10;;;3.65;;
31730;SDS011;18310;55.586;12.286;2024-01-25T09:21:40;19.58;;;3.65;;
31730;SDS011;18310;55.586;12.286;2024-01-25T09:24:44;15.87;;;2.93;;
31730;SDS011;18310;55.586;12.286;2024-01-25T09:27:49;14.30;;;3.40;;
31730;SDS011;18310;55.586;12.286;2024-01-25T09:30:52;22.77;;;3.83;;
31730;SDS011;18310;55.586;12.286;2024-01-25T09:33:57;13.98;;;3.80;;
31730;SDS011;18310;55.586;12.286;2024-01-25T09:37:01;14.13;;;2.75;;
31730;SDS011;18310;55.586;12.286;2024-01-25T09:43:09;13.93;;;2.70;;
31730;SDS011;18310;55.586;12.286;2024-01-25T09:46:14;13.35;;;2.53;;
31730;SDS011;18310;55.586;12.286;2024-01-25T09:49:20;15.70;;;3.53;;
31730;SDS011;18310;55.586;12.286;2024-01-25T09:52:24;17.77;;;3.08;;
31730;SDS011;18310;55.586;12.286;2024-01-25T09:58:36;22.92;;;2.72;;
31730;SDS011;18310;55.586;12.286;2024-01-25T10:01:41;23.50;;;4.30;;
31730;SDS011;18310;55.586;12.286;2024-01-25T10:04:49;21.15;;;3.17;;
31730;SDS011;18310;55.586;12.286;2024-01-25T10:08:13;19.75;;;3.05;;
31730;SDS011;18310;55.586;12.286;2024-01-25T10:11:17;20.45;;;3.38;;
31730;SDS011;18310;55.586;12.286;2024-01-25T10:14:20;19.48;;;2.70;;
31730;SDS011;18310;55.586;12.286;2024-01-25T10:17:24;20.10;;;3.33;;
31730;SDS011;18310;55.586;12.286;2024-01-25T10:20:47;14.27;;;3.05;;
31730;SDS011;18310;55.586;12.286;2024-01-25T10:23:53;13.82;;;3.13;;
31730;SDS011;18310;55.586;12.286;2024-01-25T10:27:00;18.38;;;3.63;;
31730;SDS011;18310;55.586;12.286;2024-01-25T10:33:09;17.10;;;3.03;;
31730;SDS011;18310;55.586;12.286;2024-01-25T10:39:18;15.80;;;3.53;;
31730;SDS011;18310;55.586;12.286;2024-01-25T10:42:23;15.63;;;2.72;;
31730;SDS011;18310;55.586;12.286;2024-01-25T10:45:27;16.23;;;2.87;;
31730;SDS011;18310;55.586;12.286;2024-01-25T10:48:30;15.68;;;2.78;;
31730;SDS011;18310;55.586;12.286;2024-01-25T10:51:35;15.55;;;3.85;;
31730;SDS011;18310;55.586;12.286;2024-01-25T10:54:40;15.63;;;2.80;;
31730;SDS011;18310;55.586;12.286;2024-01-25T10:57:44;16.45;;;2.35;;
31730;SDS011;18310;55.586;12.286;2024-01-25T11:00:50;18.48;;;3.15;;
31730;SDS011;18310;55.586;12.286;2024-01-25T11:03:55;12.98;;;2.42;;
31730;SDS011;18310;55.586;12.286;2024-01-25T11:07:04;15.43;;;3.37;;
31730;SDS011;18310;55.586;12.286;2024-01-25T11:10:15;15.80;;;2.95;;
31730;SDS011;18310;55.586;12.286;2024-01-25T11:13:23;11.30;;;2.22;;
31730;SDS011;18310;55.586;12.286;2024-01-25T11:16:29;13.00;;;2.47;;
31730;SDS011;18310;55.586;12.286;2024-01-25T11:19:35;24.08;;;3.78;;
31730;SDS011;18310;55.586;12.286;2024-01-25T11:22:39;21.60;;;3.63;;
31730;SDS011;18310;55.586;12.286;2024-01-25T11:25:49;14.35;;;3.15;;
31730;SDS011;18310;55.586;12.286;2024-01-25T11:28:53;13.57;;;2.90;;
31730;SDS011;18310;55.586;12.286;2024-01-25T11:31:56;15.83;;;2.97;;
31730;SDS011;18310;55.586;12.286;2024-01-25T11:34:59;17.80;;;3.38;;
31730;SDS011;18310;55.586;12.286;2024-01-25T11:38:03;19.63;;;3.20;;
31730;SDS011;18310;55.586;12.286;2024-01-25T11:41:08;16.88;;;3.15;;
31730;SDS011;18310;55.586;12.286;2024-01-25T11:44:12;15.95;;;2.45;;
31730;SDS011;18310;55.586;12.286;2024-01-25T11:47:15;14.88;;;2.58;;
31730;SDS011;18310;55.586;12.286;2024-01-25T11:50:21;16.85;;;2.58;;
31730;SDS011;18310;55.586;12.286;2024-01-25T11:53:26;16.08;;;3.03;;
31730;SDS011;18310;55.586;12.286;2024-01-25T11:56:31;17.23;;;3.35;;
31730;SDS011;18310;55.586;12.286;2024-01-25T11:59:40;17.75;;;3.22;;
31730;SDS011;18310;55.586;12.286;2024-01-25T12:02:43;13.97;;;2.30;;
31730;SDS011;18310;55.586;12.286;2024-01-25T12:05:47;14.27;;;2.83;;
31730;SDS011;18310;55.586;12.286;2024-01-25T12:08:50;17.23;;;3.08;;
31730;SDS011;18310;55.586;12.286;2024-01-25T12:11:55;12.27;;;3.40;;
31730;SDS011;18310;55.586;12.286;2024-01-25T12:14:59;20.80;;;4.07;;
31730;SDS011;18310;55.586;12.286;2024-01-25T12:18:02;19.00;;;2.70;;
31730;SDS011;18310;55.586;12.286;2024-01-25T12:21:09;14.45;;;2.63;;
31730;SDS011;18310;55.586;12.286;2024-01-25T12:24:12;21.67;;;3.35;;
31730;SDS011;18310;55.586;12.286;2024-01-25T12:27:17;13.20;;;2.90;;
31730;SDS011;18310;55.586;12.286;2024-01-25T12:30:20;19.73;;;2.67;;
31730;SDS011;18310;55.586;12.286;2024-01-25T12:33:24;12.23;;;1.83;;
31730;SDS011;18310;55.586;12.286;2024-01-25T12:36:53;17.48;;;2.97;;
31730;SDS011;18310;55.586;12.286;2024-01-25T12:39:57;10.13;;;2.17;;
31730;SDS011;18310;55.586;12.286;2024-01-25T12:43:01;24.23;;;3.20;;
31730;SDS011;18310;55.586;12.286;2024-01-25T12:49:18;17.52;;;2.80;;
31730;SDS011;18310;55.586;12.286;2024-01-25T12:52:25;11.52;;;2.78;;
31730;SDS011;18310;55.586;12.286;2024-01-25T12:55:29;16.35;;;2.63;;
31730;SDS011;18310;55.586;12.286;2024-01-25T12:58:33;15.07;;;2.33;;
31730;SDS011;18310;55.586;12.286;2024-01-25T13:01:37;18.58;;;2.25;;
31730;SDS011;18310;55.586;12.286;2024-01-25T13:04:41;11.40;;;2.13;;
31730;SDS011;18310;55.586;12.286;2024-01-25T13:07:46;17.83;;;2.53;;
31730;SDS011;18310;55.586;12.286;2024-01-25T13:11:12;9.23;;;2.70;;
31730;SDS011;18310;55.586;12.286;2024-01-25T13:14:16;12.65;;;3.05;;
31730;SDS011;18310;55.586;12.286;2024-01-25T13:17:19;12.27;;;2.33;;
31730;SDS011;18310;55.586;12.286;2024-01-25T13:20:23;14.50;;;3.13;;
31730;SDS011;18310;55.586;12.286;2024-01-25T13:23:27;17.63;;;2.58;;
31730;SDS011;18310;55.586;12.286;2024-01-25T13:26:33;15.73;;;2.72;;
31730;SDS011;18310;55.586;12.286;2024-01-25T13:29:37;16.50;;;2.20;;
31730;SDS011;18310;55.586;12.286;2024-01-25T13:32:40;17.40;;;3.33;;
31730;SDS011;18310;55.586;12.286;2024-01-25T13:35:44;18.65;;;3.22;;
31730;SDS011;18310;55.586;12.286;2024-01-25T13:38:47;11.50;;;2.70;;
31730;SDS011;18310;55.586;12.286;2024-01-25T13:42:11;18.30;;;3.05;;
31730;SDS011;18310;55.586;12.286;2024-01-25T13:45:15;23.08;;;3.47;;
31730;SDS011;18310;55.586;12.286;2024-01-25T13:48:18;15.32;;;2.70;;
31730;SDS011;18310;55.586;12.286;2024-01-25T13:51:22;14.17;;;3.07;;
31730;SDS011;18310;55.586;12.286;2024-01-25T13:54:25;20.48;;;2.38;;
31730;SDS011;18310;55.586;12.286;2024-01-25T13:57:30;11.97;;;2.17;;
31730;SDS011;18310;55.586;12.286;2024-01-25T14:00:34;15.35;;;2.40;;
31730;SDS011;18310;55.586;12.286;2024-01-25T14:03:37;10.60;;;2.23;;
31730;SDS011;18310;55.586;12.286;2024-01-25T14:06:46;19.92;;;3.38;;
31730;SDS011;18310;55.586;12.286;2024-01-25T14:09:49;20.03;;;2.53;;
31730;SDS011;18310;55.586;12.286;2024-01-25T14:12:56;14.68;;;2.45;;
31730;SDS011;18310;55.586;12.286;2024-01-25T14:16:00;12.60;;;3.00;;
31730;SDS011;18310;55.586;12.286;2024-01-25T14:19:04;19.48;;;2.85;;
31730;SDS011;18310;55.586;12.286;2024-01-25T14:22:08;15.05;;;2.65;;
31730;SDS011;18310;55.586;12.286;2024-01-25T14:25:29;12.90;;;2.35;;
31730;SDS011;18310;55.586;12.286;2024-01-25T14:28:34;14.27;;;3.37;;
31730;SDS011;18310;55.586;12.286;2024-01-25T14:31:37;17.23;;;3.03;;
31730;SDS011;18310;55.586;12.286;2024-01-25T14:34:41;17.73;;;3.53;;
31730;SDS011;18310;55.586;12.286;2024-01-25T14:37:44;12.73;;;3.10;;
31730;SDS011;18310;55.586;12.286;2024-01-25T14:40:48;15.20;;;3.50;;
31730;SDS011;18310;55.586;12.286;2024-01-25T14:44:02;18.42;;;3.28;;
31730;SDS011;18310;55.586;12.286;2024-01-25T14:47:08;15.82;;;2.85;;
31730;SDS011;18310;55.586;12.286;2024-01-25T14:50:13;19.70;;;2.88;;
31730;SDS011;18310;55.586;12.286;2024-01-25T14:53:17;12.23;;;2.58;;
31730;SDS011;18310;55.586;12.286;2024-01-25T14:56:20;12.90;;;2.70;;
31730;SDS011;18310;55.586;12.286;2024-01-25T14:59:25;17.90;;;2.90;;
31730;SDS011;18310;55.586;12.286;2024-01-25T15:02:29;11.88;;;2.58;;
31730;SDS011;18310;55.586;12.286;2024-01-25T15:05:32;13.38;;;2.75;;
31730;SDS011;18310;55.586;12.286;2024-01-25T15:08:36;15.43;;;2.60;;
31730;SDS011;18310;55.586;12.286;2024-01-25T15:11:39;11.10;;;2.83;;
31730;SDS011;18310;55.586;12.286;2024-01-25T15:14:47;15.73;;;2.85;;
31730;SDS011;18310;55.586;12.286;2024-01-25T15:17:50;10.02;;;2.38;;
31730;SDS011;18310;55.586;12.286;2024-01-25T15:20:54;18.40;;;3.00;;
31730;SDS011;18310;55.586;12.286;2024-01-25T15:23:57;18.00;;;2.90;;
31730;SDS011;18310;55.586;12.286;2024-01-25T15:27:00;14.30;;;3.03;;
31730;SDS011;18310;55.586;12.286;2024-01-25T15:30:06;16.63;;;2.60;;
31730;SDS011;18310;55.586;12.286;2024-01-25T15:33:11;20.90;;;3.25;;
31730;SDS011;18310;55.586;12.286;2024-01-25T15:36:14;25.50;;;3.45;;
31730;SDS011;18310;55.586;12.286;2024-01-25T15:39:20;10.68;;;2.47;;
31730;SDS011;18310;55.586;12.286;2024-01-25T15:45:34;14.00;;;2.45;;
31730;SDS011;18310;55.586;12.286;2024-01-25T15:48:38;16.35;;;3.25;;
31730;SDS011;18310;55.586;12.286;2024-01-25T15:51:41;15.77;;;3.05;;
31730;SDS011;18310;55.586;12.286;2024-01-25T15:54:45;18.33;;;2.50;;
31730;SDS011;18310;55.586;12.286;2024-01-25T15:57:49;11.35;;;2.63;;
31730;SDS011;18310;55.586;12.286;2024-01-25T16:00:54;11.32;;;2.20;;
31730;SDS011;18310;55.586;12.286;2024-01-25T16:03:58;11.35;;;3.13;;
31730;SDS011;18310;55.586;12.286;2024-01-25T16:07:08;23.15;;;3.13;;
31730;SDS011;18310;55.586;12.286;2024-01-25T16:10:12;13.90;;;2.80;;
31730;SDS011;18310;55.586;12.286;2024-01-25T16:13:16;19.33;;;2.83;;
31730;SDS011;18310;55.586;12.286;2024-01-25T16:16:20;21.58;;;3.05;;
31730;SDS011;18310;55.586;12.286;2024-01-25T16:19:24;19.73;;;2.53;;
31730;SDS011;18310;55.586;12.286;2024-01-25T16:22:28;15.25;;;3.17;;
31730;SDS011;18310;55.586;12.286;2024-01-25T16:28:35;18.58;;;3.15;;
31730;SDS011;18310;55.586;12.286;2024-01-25T16:31:40;8.90;;;2.38;;
31730;SDS011;18310;55.586;12.286;2024-01-25T16:34:44;12.90;;;2.28;;
31730;SDS011;18310;55.586;12.286;2024-01-25T16:37:48;14.75;;;2.92;;
31730;SDS011;18310;55.586;12.286;2024-01-25T16:43:55;14.63;;;2.50;;
31730;SDS011;18310;55.586;12.286;2024-01-25T16:47:07;18.48;;;2.72;;
31730;SDS011;18310;55.586;12.286;2024-01-25T16:50:11;10.05;;;2.40;;
31730;SDS011;18310;55.586;12.286;2024-01-25T16:53:16;10.63;;;2.25;;
31730;SDS011;18310;55.586;12.286;2024-01-25T16:56:19;20.70;;;3.30;;
31730;SDS011;18310;55.586;12.286;2024-01-25T17:02:29;17.40;;;2.97;;
31730;SDS011;18310;55.586;12.286;2024-01-25T17:05:32;14.35;;;3.22;;
31730;SDS011;18310;55.586;12.286;2024-01-25T17:08:36;17.23;;;3.40;;
31730;SDS011;18310;55.586;12.286;2024-01-25T17:11:40;13.75;;;2.55;;
31730;SDS011;18310;55.586;12.286;2024-01-25T17:14:43;15.00;;;2.55;;
31730;SDS011;18310;55.586;12.286;2024-01-25T17:17:48;10.48;;;2.60;;
31730;SDS011;18310;55.586;12.286;2024-01-25T17:20:54;16.50;;;3.13;;
31730;SDS011;18310;55.586;12.286;2024-01-25T17:23:57;13.77;;;2.93;;
31730;SDS011;18310;55.586;12.286;2024-01-25T17:27:07;20.52;;;3.40;;
31730;SDS011;18310;55.586;12.286;2024-01-25T17:30:11;21.90;;;3.65;;
31730;SDS011;18310;55.586;12.286;2024-01-25T17:33:17;21.75;;;3.13;;
31730;SDS011;18310;55.586;12.286;2024-01-25T17:36:20;12.60;;;3.63;;
31730;SDS011;18310;55.586;12.286;2024-01-25T17:39:24;15.07;;;3.17;;
31730;SDS011;18310;55.586;12.286;2024-01-25T17:42:28;14.23;;;2.63;;
31730;SDS011;18310;55.586;12.286;2024-01-25T17:45:31;11.10;;;2.63;;
31730;SDS011;18310;55.586;12.286;2024-01-25T17:48:36;15.73;;;2.85;;
31730;SDS011;18310;55.586;12.286;2024-01-25T17:51:41;15.13;;;2.70;;
31730;SDS011;18310;55.586;12.286;2024-01-25T17:54:44;11.67;;;2.70;;
31730;SDS011;18310;55.586;12.286;2024-01-25T17:57:48;15.52;;;2.60;;
31730;SDS011;18310;55.586;12.286;2024-01-25T18:00:51;10.97;;;2.47;;
31730;SDS011;18310;55.586;12.286;2024-01-25T18:03:56;14.20;;;2.55;;
31730;SDS011;18310;55.586;12.286;2024-01-25T18:07:00;14.23;;;3.00;;
31730;SDS011;18310;55.586;12.286;2024-01-25T18:10:04;20.30;;;3.08;;
31730;SDS011;18310;55.586;12.286;2024-01-25T18:13:08;16.60;;;2.50;;
31730;SDS011;18310;55.586;12.286;2024-01-25T18:16:12;21.38;;;3.63;;
31730;SDS011;18310;55.586;12.286;2024-01-25T18:19:17;14.18;;;2.75;;
31730;SDS011;18310;55.586;12.286;2024-01-25T18:22:21;12.32;;;3.13;;
31730;SDS011;18310;55.586;12.286;2024-01-25T18:25:25;15.25;;;3.55;;
31730;SDS011;18310;55.586;12.286;2024-01-25T18:28:55;13.63;;;2.45;;
31730;SDS011;18310;55.586;12.286;2024-01-25T18:32:06;13.18;;;3.15;;
31730;SDS011;18310;55.586;12.286;2024-01-25T18:35:10;16.27;;;2.55;;